createdAt,value
2023-04-25T00:00:14.369Z,0
2023-04-25T00:05:31.664Z,0
2023-04-25T00:10:48.905Z,0
2023-04-25T00:16:06.366Z,0
2023-04-25T00:21:23.646Z,0
2023-04-25T00:26:41.078Z,0
2023-04-25T00:31:58.634Z,0
2023-04-25T00:37:18.287Z,0
2023-04-25T00:42:35.712Z,0
2023-04-25T00:47:55.307Z,0
2023-04-25T00:53:12.787Z,0
2023-04-25T00:58:30.071Z,0
2023-04-25T01:03:47.334Z,0
2023-04-25T01:09:04.912Z,0
2023-04-25T01:14:22.082Z,0
2023-04-25T01:19:39.289Z,0
2023-04-25T01:24:56.590Z,0
2023-04-25T01:30:14.060Z,0
2023-04-25T01:35:31.466Z,0
2023-04-25T01:40:48.812Z,0
2023-04-25T01:46:06.076Z,0
2023-04-25T01:51:23.434Z,0
2023-04-25T01:56:40.739Z,0
2023-04-25T02:01:58.160Z,0
2023-04-25T02:07:15.593Z,0
2023-04-25T02:12:36.469Z,0
2023-04-25T02:17:54.042Z,0
2023-04-25T02:23:11.335Z,0
2023-04-25T02:28:28.615Z,0
2023-04-25T02:33:45.911Z,0
2023-04-25T02:39:03.276Z,0
2023-04-25T02:44:20.727Z,0
2023-04-25T02:49:37.855Z,0
2023-04-25T02:54:55.313Z,0
2023-04-25T03:05:33.027Z,0
2023-04-25T03:10:50.373Z,0
2023-04-25T03:16:07.785Z,0
2023-04-25T03:21:42.341Z,0
2023-04-25T03:26:59.935Z,0
2023-04-25T03:32:17.356Z,0
2023-04-25T03:37:34.713Z,0
2023-04-25T03:42:52.327Z,0
2023-04-25T03:48:12.691Z,0
2023-04-25T03:53:46.255Z,0
2023-04-25T03:59:03.638Z,0
2023-04-25T04:04:20.678Z,17.5
2023-04-25T04:09:37.794Z,36.2
2023-04-25T04:14:57.349Z,75
2023-04-25T04:20:26.114Z,140.8
2023-04-25T04:25:43.501Z,217.9
2023-04-25T04:31:03.720Z,305.8
2023-04-25T04:36:20.636Z,402.1
2023-04-25T04:41:57.895Z,522.1
2023-04-25T04:47:15.117Z,704.2
2023-04-25T04:52:41.393Z,945.4
2023-04-25T04:57:58.683Z,1338.7
2023-04-25T05:08:53.332Z,3290.8
2023-04-25T05:14:10.658Z,2621.3
2023-04-25T05:19:27.533Z,1720.4
2023-04-25T05:24:44.517Z,2024.2
2023-04-25T05:30:01.678Z,2445.4
2023-04-25T05:35:24.230Z,3051.3
2023-04-25T05:40:41.353Z,3248.8
2023-04-25T05:45:58.535Z,3260.4
2023-04-25T05:51:15.785Z,3685
2023-04-25T06:01:52.875Z,6173.3
2023-04-25T06:07:10.413Z,7118.3
2023-04-25T06:12:27.703Z,9039.2
2023-04-25T06:17:45.070Z,7915.8
2023-04-25T06:23:02.108Z,8608.7
2023-04-25T06:33:36.248Z,8685.4
2023-04-25T06:44:21.085Z,13606.7
2023-04-25T06:49:39.104Z,14885.4
2023-04-25T06:54:56.104Z,11084.2
2023-04-25T07:00:13.209Z,9233.3
2023-04-25T07:05:31.214Z,7407.9
2023-04-25T07:10:50.015Z,7445
2023-04-25T07:16:06.968Z,8084.6
2023-04-25T07:21:24.192Z,9447.9
2023-04-25T07:26:41.118Z,8702.5
2023-04-25T07:31:58.203Z,8705
2023-04-25T07:37:15.271Z,11287.5
2023-04-25T07:42:32.704Z,13747.9
2023-04-25T07:47:50.471Z,19155
2023-04-25T07:53:07.777Z,14262.9
2023-04-25T07:58:25.008Z,17696.7
2023-04-25T08:03:42.662Z,16804.6
2023-04-25T08:14:41.834Z,18279.6
2023-04-25T08:19:59.140Z,20171.2
2023-04-25T08:25:16.445Z,19114.6
2023-04-25T08:30:33.653Z,20789.6
2023-04-25T08:35:50.972Z,22577.1
2023-04-25T08:46:25.641Z,24223.3
2023-04-25T08:51:43.029Z,25486.2
2023-04-25T08:57:00.342Z,25908.3
2023-04-25T09:02:17.929Z,24063.3
2023-04-25T09:07:34.980Z,23373.3
2023-04-25T09:12:51.992Z,20764.2
2023-04-25T09:18:08.365Z,17099.6
2023-04-25T09:23:24.784Z,7362.9
2023-04-25T09:28:40.603Z,9007.9
2023-04-25T09:34:05.142Z,12637.9
2023-04-25T09:39:22.760Z,15252.5
2023-04-25T09:44:39.949Z,17662.5
2023-04-25T09:49:57.352Z,12161.7
2023-04-25T09:55:14.073Z,18175
2023-04-25T10:00:31.872Z,22550.4
2023-04-25T10:05:49.499Z,24777.1
2023-04-25T10:11:07.596Z,24730.4
2023-04-25T10:16:24.769Z,26486.2
2023-04-25T10:21:44.461Z,39980
2023-04-25T10:27:01.906Z,24430
2023-04-25T10:32:18.687Z,24255.8
2023-04-25T10:37:35.343Z,27235
2023-04-25T10:42:51.986Z,24861.7
2023-04-25T10:53:32.572Z,31648.3
2023-04-25T10:58:52.298Z,31170.8
2023-04-25T11:04:07.586Z,7395.8
2023-04-25T11:09:22.140Z,4353.3
2023-04-25T11:14:38.067Z,5744.2
2023-04-25T11:19:54.498Z,6372.1
2023-04-25T11:25:11.207Z,6835
2023-04-25T11:30:28.372Z,8634.6
2023-04-25T11:41:08.139Z,11880
2023-04-25T11:46:25.551Z,14710.8
2023-04-25T11:51:51.219Z,19266.2
2023-04-25T11:57:09.320Z,21962.9
2023-04-25T12:02:26.729Z,21132.5
2023-04-25T12:07:44.068Z,20674.2
2023-04-25T12:13:01.149Z,26735
2023-04-25T12:18:19.201Z,22333.7
2023-04-25T12:23:35.120Z,25752.1
2023-04-25T12:28:54.656Z,62109
2023-04-25T12:34:14.951Z,60896.1
2023-04-25T12:39:32.445Z,41037.5
2023-04-25T12:44:46.528Z,7352.1
2023-04-25T12:50:01.619Z,9795
2023-04-25T12:55:17.710Z,13172.1
2023-04-25T13:05:55.358Z,43781.7
2023-04-25T13:11:17.694Z,25753.8
2023-04-25T13:16:33.417Z,19306.7
2023-04-25T13:21:48.848Z,15876.2
2023-04-25T13:27:05.163Z,13763.3
2023-04-25T13:32:21.392Z,6072.5
2023-04-25T13:37:54.521Z,3594.6
2023-04-25T13:43:10.861Z,3540.4
2023-04-25T13:48:27.258Z,5219.6
2023-04-25T13:53:44.229Z,7906.2
2023-04-25T13:59:01.472Z,13323.7
2023-04-25T14:04:19.093Z,13751.7
2023-04-25T14:09:36.532Z,13965.4
2023-04-25T14:20:13.942Z,14863.8
2023-04-25T14:25:31.147Z,16412.5
2023-04-25T14:30:48.814Z,37894.2
2023-04-25T14:36:09.055Z,36647.5
2023-04-25T14:41:27.440Z,30945
2023-04-25T14:52:03.170Z,9362.1
2023-04-25T14:57:18.524Z,7542.9
2023-04-25T15:02:34.936Z,9961.2
2023-04-25T15:07:51.693Z,11605.4
2023-04-25T15:13:11.723Z,10178.3
2023-04-25T15:18:28.516Z,6981.7
2023-04-25T15:23:45.170Z,7690
2023-04-25T15:29:02.033Z,6810.8
2023-04-25T15:34:18.874Z,10358.3
2023-04-25T15:39:36.697Z,10570.4
2023-04-25T15:44:55.717Z,4298.3
2023-04-25T15:50:12.338Z,4512.5
2023-04-25T15:55:29.197Z,6710.8
2023-04-25T16:06:06.959Z,12421.2
2023-04-25T16:11:24.423Z,9275.4
2023-04-25T16:16:44.013Z,6169.6
2023-04-25T16:22:00.711Z,5135
2023-04-25T16:27:20.766Z,4255.8
2023-04-25T16:32:37.644Z,4503.3
2023-04-25T16:37:57.530Z,3832.9
2023-04-25T16:43:23.592Z,3590.4
2023-04-25T16:48:40.634Z,4068.3
2023-04-25T16:53:57.910Z,5140.4
2023-04-25T16:59:14.855Z,3707.5
2023-04-25T17:04:42.170Z,3830.8
2023-04-25T17:09:59.284Z,3184.2
2023-04-25T17:15:16.222Z,3085
2023-04-25T17:20:33.164Z,3093.3
2023-04-25T17:25:50.270Z,2886.3
2023-04-25T17:31:24.713Z,2480.8
2023-04-25T17:36:41.935Z,2659.2
2023-04-25T17:42:06.289Z,3080
2023-04-25T17:47:23.542Z,2807.5
2023-04-25T17:52:40.729Z,1892.1
2023-04-25T17:57:57.550Z,1893.7
2023-04-25T18:03:14.392Z,1886.2
2023-04-25T18:08:31.800Z,1497.5
2023-04-25T18:13:49.071Z,1340.4
2023-04-25T18:19:06.348Z,1078.3
2023-04-25T18:24:23.615Z,904.2
2023-04-25T18:29:41.044Z,665
2023-04-25T18:34:58.203Z,488.3
2023-04-25T18:40:15.653Z,345
2023-04-25T18:45:32.841Z,227.1
2023-04-25T18:50:50.133Z,136.3
2023-04-25T18:56:06.912Z,73.3
2023-04-25T19:01:23.915Z,32.9
2023-04-25T19:06:41.551Z,0.9
2023-04-25T19:11:59.172Z,0
2023-04-25T19:17:16.514Z,0
2023-04-25T19:22:33.763Z,0
2023-04-25T19:27:51.109Z,0
2023-04-25T19:33:08.621Z,0
2023-04-25T19:38:25.898Z,0
2023-04-25T19:43:43.281Z,0
2023-04-25T19:49:00.881Z,0
2023-04-25T19:54:36.162Z,0
2023-04-25T19:59:53.833Z,0
2023-04-25T20:05:11.396Z,0
2023-04-25T20:10:28.866Z,0
2023-04-25T20:15:46.085Z,0
2023-04-25T20:21:03.697Z,0
2023-04-25T20:26:22.742Z,0
2023-04-25T20:31:40.292Z,0
2023-04-25T20:36:57.651Z,0
2023-04-25T20:42:14.959Z,0
2023-04-25T20:47:32.335Z,0
2023-04-25T20:57:59.760Z,0
2023-04-25T21:03:17.155Z,0
2023-04-25T21:08:34.778Z,0
2023-04-25T21:13:52.083Z,0
2023-04-25T21:19:09.352Z,0
2023-04-25T21:24:26.508Z,0
2023-04-25T21:29:44.267Z,0
2023-04-25T21:35:01.508Z,0
2023-04-25T21:40:18.718Z,0
2023-04-25T21:45:41.279Z,0
2023-04-25T21:51:04.839Z,0
2023-04-25T21:56:22.106Z,0
2023-04-25T22:01:39.287Z,0
2023-04-25T22:06:56.933Z,0
2023-04-25T22:12:14.292Z,0
2023-04-25T22:17:39.006Z,0
2023-04-25T22:23:03.915Z,0
2023-04-25T22:28:21.122Z,0
2023-04-25T22:33:38.333Z,0
2023-04-25T22:38:55.912Z,0
2023-04-25T22:44:24.240Z,0
2023-04-25T22:49:41.754Z,0
2023-04-25T22:54:58.898Z,0
2023-04-25T23:00:16.518Z,0
2023-04-25T23:05:34.161Z,0
2023-04-25T23:11:00.159Z,0
2023-04-25T23:16:17.669Z,0
2023-04-25T23:21:34.974Z,0
2023-04-25T23:32:12.695Z,0
2023-04-25T23:37:30.111Z,0
2023-04-25T23:42:50.360Z,0
2023-04-25T23:48:10.557Z,0
2023-04-25T23:53:27.772Z,0
2023-04-25T23:58:45.255Z,0
